sensor_id;sensor_type;location;lat;lon;timestamp;P1;durP1;ratioP1;P2;durP2;ratioP2
4428;SDS011;2227;47.810;8.810;2023-03-02T04:47:38;687.87;;;570.17;;
4428;SDS011;2227;47.810;8.810;2023-03-02T04:50:05;692.08;;;564.78;;
4428;SDS011;2227;47.810;8.810;2023-03-02T04:52:32;687.53;;;563.65;;
4428;SDS011;2227;47.810;8.810;2023-03-02T04:54:59;689.15;;;561.33;;
4428;SDS011;2227;47.810;8.810;2023-03-02T04:57:26;688.72;;;554.45;;
4428;SDS011;2227;47.810;8.810;2023-03-02T04:59:52;686.88;;;563.35;;
4428;SDS011;2227;47.810;8.810;2023-03-02T05:02:19;683.10;;;559.70;;
4428;SDS011;2227;47.810;8.810;2023-03-02T05:04:46;687.20;;;566.97;;
4428;SDS011;2227;47.810;8.810;2023-03-02T05:07:13;686.55;;;553.38;;
4428;SDS011;2227;47.810;8.810;2023-03-02T05:09:39;680.58;;;561.13;;
4428;SDS011;2227;47.810;8.810;2023-03-02T05:12:06;677.33;;;565.10;;
4428;SDS011;2227;47.810;8.810;2023-03-02T05:14:33;686.85;;;565.05;;
4428;SDS011;2227;47.810;8.810;2023-03-02T05:16:59;682.70;;;554.40;;
4428;SDS011;2227;47.810;8.810;2023-03-02T05:19:26;682.45;;;550.55;;
4428;SDS011;2227;47.810;8.810;2023-03-02T05:21:53;690.25;;;550.67;;
4428;SDS011;2227;47.810;8.810;2023-03-02T05:24:21;686.58;;;551.45;;
4428;SDS011;2227;47.810;8.810;2023-03-02T05:26:48;684.72;;;547.13;;
4428;SDS011;2227;47.810;8.810;2023-03-02T05:29:14;683.50;;;536.60;;
4428;SDS011;2227;47.810;8.810;2023-03-02T05:31:41;683.88;;;554.05;;
4428;SDS011;2227;47.810;8.810;2023-03-02T05:34:11;684.40;;;546.70;;
4428;SDS011;2227;47.810;8.810;2023-03-02T05:36:39;686.88;;;546.40;;
4428;SDS011;2227;47.810;8.810;2023-03-02T05:39:06;685.05;;;547.13;;
4428;SDS011;2227;47.810;8.810;2023-03-02T05:41:33;687.20;;;551.92;;
4428;SDS011;2227;47.810;8.810;2023-03-02T05:44:01;688.08;;;555.42;;
4428;SDS011;2227;47.810;8.810;2023-03-02T05:46:28;697.78;;;552.75;;
4428;SDS011;2227;47.810;8.810;2023-03-02T05:48:55;693.63;;;554.80;;
4428;SDS011;2227;47.810;8.810;2023-03-02T05:51:22;690.42;;;558.67;;
4428;SDS011;2227;47.810;8.810;2023-03-02T05:53:48;695.17;;;561.50;;
4428;SDS011;2227;47.810;8.810;2023-03-02T05:56:15;695.83;;;573.40;;
4428;SDS011;2227;47.810;8.810;2023-03-02T05:58:42;688.17;;;559.90;;
4428;SDS011;2227;47.810;8.810;2023-03-02T06:01:09;693.10;;;574.08;;
4428;SDS011;2227;47.810;8.810;2023-03-02T06:03:40;687.95;;;568.10;;
4428;SDS011;2227;47.810;8.810;2023-03-02T06:06:07;686.85;;;565.42;;
4428;SDS011;2227;47.810;8.810;2023-03-02T06:08:34;690.00;;;568.25;;
4428;SDS011;2227;47.810;8.810;2023-03-02T06:11:06;696.80;;;573.80;;
4428;SDS011;2227;47.810;8.810;2023-03-02T06:13:33;689.40;;;560.80;;
4428;SDS011;2227;47.810;8.810;2023-03-02T06:16:00;686.97;;;563.88;;
4428;SDS011;2227;47.810;8.810;2023-03-02T06:18:27;688.60;;;561.50;;
4428;SDS011;2227;47.810;8.810;2023-03-02T06:20:53;686.75;;;561.20;;
4428;SDS011;2227;47.810;8.810;2023-03-02T06:23:20;691.65;;;556.25;;
4428;SDS011;2227;47.810;8.810;2023-03-02T06:25:47;689.83;;;558.70;;
4428;SDS011;2227;47.810;8.810;2023-03-02T06:28:14;693.25;;;558.40;;
4428;SDS011;2227;47.810;8.810;2023-03-02T06:30:44;689.22;;;555.17;;
4428;SDS011;2227;47.810;8.810;2023-03-02T06:33:16;691.10;;;566.55;;
4428;SDS011;2227;47.810;8.810;2023-03-02T06:35:45;689.65;;;560.20;;
4428;SDS011;2227;47.810;8.810;2023-03-02T06:38:12;707.45;;;552.22;;
4428;SDS011;2227;47.810;8.810;2023-03-02T06:40:39;690.30;;;565.85;;
4428;SDS011;2227;47.810;8.810;2023-03-02T06:43:05;701.40;;;563.47;;
4428;SDS011;2227;47.810;8.810;2023-03-02T06:45:32;692.90;;;570.08;;
4428;SDS011;2227;47.810;8.810;2023-03-02T06:47:59;691.60;;;565.37;;
4428;SDS011;2227;47.810;8.810;2023-03-02T06:50:26;695.60;;;579.83;;
4428;SDS011;2227;47.810;8.810;2023-03-02T06:52:53;690.08;;;563.38;;
4428;SDS011;2227;47.810;8.810;2023-03-02T06:55:20;684.65;;;565.13;;
4428;SDS011;2227;47.810;8.810;2023-03-02T06:57:47;684.88;;;570.95;;
4428;SDS011;2227;47.810;8.810;2023-03-02T07:00:14;802.92;;;577.83;;
4428;SDS011;2227;47.810;8.810;2023-03-02T07:02:51;789.10;;;583.33;;
4428;SDS011;2227;47.810;8.810;2023-03-02T07:05:18;700.72;;;576.67;;
4428;SDS011;2227;47.810;8.810;2023-03-02T07:07:45;696.05;;;577.28;;
4428;SDS011;2227;47.810;8.810;2023-03-02T07:10:12;1072.00;;;637.05;;
4428;SDS011;2227;47.810;8.810;2023-03-02T07:12:39;723.47;;;590.83;;
4428;SDS011;2227;47.810;8.810;2023-03-02T07:15:07;699.53;;;588.27;;
4428;SDS011;2227;47.810;8.810;2023-03-02T07:17:37;695.87;;;584.33;;
4428;SDS011;2227;47.810;8.810;2023-03-02T07:20:04;700.45;;;595.17;;
4428;SDS011;2227;47.810;8.810;2023-03-02T07:22:32;694.25;;;574.08;;
4428;SDS011;2227;47.810;8.810;2023-03-02T07:24:58;689.28;;;574.92;;
4428;SDS011;2227;47.810;8.810;2023-03-02T07:27:25;692.88;;;583.58;;
4428;SDS011;2227;47.810;8.810;2023-03-02T07:29:52;695.80;;;590.85;;
4428;SDS011;2227;47.810;8.810;2023-03-02T07:32:18;696.20;;;590.35;;
4428;SDS011;2227;47.810;8.810;2023-03-02T07:34:45;697.83;;;591.47;;
4428;SDS011;2227;47.810;8.810;2023-03-02T07:37:12;697.80;;;593.38;;
4428;SDS011;2227;47.810;8.810;2023-03-02T07:39:39;695.40;;;590.72;;
4428;SDS011;2227;47.810;8.810;2023-03-02T07:42:05;696.95;;;593.85;;
4428;SDS011;2227;47.810;8.810;2023-03-02T07:44:34;688.40;;;577.63;;
4428;SDS011;2227;47.810;8.810;2023-03-02T07:47:00;691.90;;;599.33;;
4428;SDS011;2227;47.810;8.810;2023-03-02T07:49:27;690.30;;;593.72;;
4428;SDS011;2227;47.810;8.810;2023-03-02T07:51:54;692.57;;;603.70;;
4428;SDS011;2227;47.810;8.810;2023-03-02T07:54:20;696.42;;;602.17;;
4428;SDS011;2227;47.810;8.810;2023-03-02T07:56:47;693.13;;;604.05;;
4428;SDS011;2227;47.810;8.810;2023-03-02T07:59:14;690.37;;;596.67;;
4428;SDS011;2227;47.810;8.810;2023-03-02T08:01:40;696.92;;;602.88;;
4428;SDS011;2227;47.810;8.810;2023-03-02T08:04:07;696.13;;;609.38;;
4428;SDS011;2227;47.810;8.810;2023-03-02T08:06:34;689.50;;;605.03;;
4428;SDS011;2227;47.810;8.810;2023-03-02T08:09:02;689.22;;;602.10;;
4428;SDS011;2227;47.810;8.810;2023-03-02T08:11:29;684.05;;;598.80;;
4428;SDS011;2227;47.810;8.810;2023-03-02T08:14:00;683.60;;;607.47;;
4428;SDS011;2227;47.810;8.810;2023-03-02T08:16:27;678.83;;;602.53;;
4428;SDS011;2227;47.810;8.810;2023-03-02T08:18:55;683.47;;;599.63;;
4428;SDS011;2227;47.810;8.810;2023-03-02T08:21:25;687.60;;;609.65;;
4428;SDS011;2227;47.810;8.810;2023-03-02T08:23:52;688.88;;;608.15;;
4428;SDS011;2227;47.810;8.810;2023-03-02T08:26:19;689.85;;;607.15;;
4428;SDS011;2227;47.810;8.810;2023-03-02T08:28:46;685.08;;;606.13;;
4428;SDS011;2227;47.810;8.810;2023-03-02T08:31:13;687.80;;;610.67;;
4428;SDS011;2227;47.810;8.810;2023-03-02T08:33:40;693.05;;;603.58;;
4428;SDS011;2227;47.810;8.810;2023-03-02T08:36:08;703.45;;;606.83;;
4428;SDS011;2227;47.810;8.810;2023-03-02T08:38:40;696.38;;;604.90;;
4428;SDS011;2227;47.810;8.810;2023-03-02T08:41:09;694.97;;;611.80;;
4428;SDS011;2227;47.810;8.810;2023-03-02T08:43:38;693.38;;;606.03;;
4428;SDS011;2227;47.810;8.810;2023-03-02T08:46:05;694.75;;;614.67;;
4428;SDS011;2227;47.810;8.810;2023-03-02T08:48:32;692.43;;;613.60;;
4428;SDS011;2227;47.810;8.810;2023-03-02T08:51:00;694.72;;;613.72;;
4428;SDS011;2227;47.810;8.810;2023-03-02T08:53:38;685.80;;;607.92;;
4428;SDS011;2227;47.810;8.810;2023-03-02T08:56:20;693.83;;;612.90;;
4428;SDS011;2227;47.810;8.810;2023-03-02T08:58:52;691.72;;;614.67;;
4428;SDS011;2227;47.810;8.810;2023-03-02T09:01:24;695.05;;;612.85;;
4428;SDS011;2227;47.810;8.810;2023-03-02T09:03:55;698.30;;;612.05;;
4428;SDS011;2227;47.810;8.810;2023-03-02T09:06:24;691.33;;;610.22;;
4428;SDS011;2227;47.810;8.810;2023-03-02T09:08:52;693.92;;;612.22;;
4428;SDS011;2227;47.810;8.810;2023-03-02T09:11:19;686.67;;;605.50;;
4428;SDS011;2227;47.810;8.810;2023-03-02T09:13:46;692.80;;;615.97;;
4428;SDS011;2227;47.810;8.810;2023-03-02T09:16:13;696.20;;;618.22;;
4428;SDS011;2227;47.810;8.810;2023-03-02T09:18:40;696.20;;;617.80;;
4428;SDS011;2227;47.810;8.810;2023-03-02T09:21:09;695.72;;;612.38;;
4428;SDS011;2227;47.810;8.810;2023-03-02T09:23:35;695.63;;;611.47;;
4428;SDS011;2227;47.810;8.810;2023-03-02T09:26:02;695.40;;;618.23;;
4428;SDS011;2227;47.810;8.810;2023-03-02T09:28:30;694.70;;;615.80;;
4428;SDS011;2227;47.810;8.810;2023-03-02T09:30:57;696.63;;;617.60;;
4428;SDS011;2227;47.810;8.810;2023-03-02T09:33:29;702.00;;;624.90;;
4428;SDS011;2227;47.810;8.810;2023-03-02T09:35:57;701.65;;;624.67;;
4428;SDS011;2227;47.810;8.810;2023-03-02T09:38:23;694.42;;;617.72;;
4428;SDS011;2227;47.810;8.810;2023-03-02T09:46:33;694.42;;;612.58;;
4428;SDS011;2227;47.810;8.810;2023-03-02T09:52:08;698.90;;;621.83;;
4428;SDS011;2227;47.810;8.810;2023-03-02T09:58:04;698.60;;;621.03;;
4428;SDS011;2227;47.810;8.810;2023-03-02T10:00:34;706.45;;;626.97;;
4428;SDS011;2227;47.810;8.810;2023-03-02T10:05:46;692.22;;;613.47;;
4428;SDS011;2227;47.810;8.810;2023-03-02T10:08:16;693.80;;;614.40;;
4428;SDS011;2227;47.810;8.810;2023-03-02T10:10:48;695.92;;;618.92;;
4428;SDS011;2227;47.810;8.810;2023-03-02T10:13:53;702.60;;;626.10;;
4428;SDS011;2227;47.810;8.810;2023-03-02T10:22:27;718.33;;;642.05;;
4428;SDS011;2227;47.810;8.810;2023-03-02T10:28:10;709.95;;;633.53;;
4428;SDS011;2227;47.810;8.810;2023-03-02T10:30:54;709.90;;;633.55;;
4428;SDS011;2227;47.810;8.810;2023-03-02T10:33:30;716.95;;;640.10;;
4428;SDS011;2227;47.810;8.810;2023-03-02T10:35:58;709.10;;;632.27;;
4428;SDS011;2227;47.810;8.810;2023-03-02T10:38:26;700.25;;;624.25;;
4428;SDS011;2227;47.810;8.810;2023-03-02T10:40:58;707.30;;;631.95;;
4428;SDS011;2227;47.810;8.810;2023-03-02T10:43:44;719.35;;;643.53;;
4428;SDS011;2227;47.810;8.810;2023-03-02T10:46:12;718.67;;;642.25;;
4428;SDS011;2227;47.810;8.810;2023-03-02T10:51:25;709.00;;;632.20;;
4428;SDS011;2227;47.810;8.810;2023-03-02T10:54:03;712.10;;;635.97;;
4428;SDS011;2227;47.810;8.810;2023-03-02T10:56:31;708.35;;;632.05;;
4428;SDS011;2227;47.810;8.810;2023-03-02T10:58:59;708.20;;;632.07;;
4428;SDS011;2227;47.810;8.810;2023-03-02T11:01:29;708.00;;;631.72;;
4428;SDS011;2227;47.810;8.810;2023-03-02T11:03:57;709.90;;;633.40;;
4428;SDS011;2227;47.810;8.810;2023-03-02T11:06:25;719.55;;;642.75;;
4428;SDS011;2227;47.810;8.810;2023-03-02T11:09:06;711.97;;;635.33;;
4428;SDS011;2227;47.810;8.810;2023-03-02T11:11:33;709.78;;;633.38;;
4428;SDS011;2227;47.810;8.810;2023-03-02T11:14:34;715.97;;;639.10;;
4428;SDS011;2227;47.810;8.810;2023-03-02T11:16:53;721.92;;;645.28;;
4428;SDS011;2227;47.810;8.810;2023-03-02T11:22:21;718.67;;;641.83;;
4428;SDS011;2227;47.810;8.810;2023-03-02T11:25:44;721.50;;;644.90;;
4428;SDS011;2227;47.810;8.810;2023-03-02T11:28:30;727.83;;;651.45;;
4428;SDS011;2227;47.810;8.810;2023-03-02T11:30:55;729.60;;;652.65;;
4428;SDS011;2227;47.810;8.810;2023-03-02T11:36:23;734.78;;;657.08;;
4428;SDS011;2227;47.810;8.810;2023-03-02T11:39:00;726.83;;;649.95;;
4428;SDS011;2227;47.810;8.810;2023-03-02T11:41:31;721.58;;;644.55;;
4428;SDS011;2227;47.810;8.810;2023-03-02T11:44:04;725.53;;;648.53;;
4428;SDS011;2227;47.810;8.810;2023-03-02T11:46:39;720.72;;;643.92;;
4428;SDS011;2227;47.810;8.810;2023-03-02T11:49:13;720.78;;;643.92;;
4428;SDS011;2227;47.810;8.810;2023-03-02T11:51:52;718.67;;;641.90;;
4428;SDS011;2227;47.810;8.810;2023-03-02T11:54:38;709.35;;;632.25;;
4428;SDS011;2227;47.810;8.810;2023-03-02T11:57:16;708.10;;;631.42;;
4428;SDS011;2227;47.810;8.810;2023-03-02T11:59:47;704.85;;;628.25;;
4428;SDS011;2227;47.810;8.810;2023-03-02T12:02:15;710.42;;;634.22;;
4428;SDS011;2227;47.810;8.810;2023-03-02T12:04:43;701.83;;;625.55;;
4428;SDS011;2227;47.810;8.810;2023-03-02T12:09:55;705.33;;;629.33;;
4428;SDS011;2227;47.810;8.810;2023-03-02T12:18:01;713.92;;;638.13;;
4428;SDS011;2227;47.810;8.810;2023-03-02T12:20:28;713.35;;;637.55;;
4428;SDS011;2227;47.810;8.810;2023-03-02T12:23:05;712.78;;;637.03;;
4428;SDS011;2227;47.810;8.810;2023-03-02T12:25:46;730.67;;;654.83;;
4428;SDS011;2227;47.810;8.810;2023-03-02T12:28:24;730.28;;;654.45;;
4428;SDS011;2227;47.810;8.810;2023-03-02T12:31:00;725.53;;;649.13;;
4428;SDS011;2227;47.810;8.810;2023-03-02T12:33:43;721.90;;;646.00;;
4428;SDS011;2227;47.810;8.810;2023-03-02T12:36:14;723.25;;;647.75;;
4428;SDS011;2227;47.810;8.810;2023-03-02T12:38:56;724.40;;;647.22;;
4428;SDS011;2227;47.810;8.810;2023-03-02T12:47:06;732.57;;;656.70;;
4428;SDS011;2227;47.810;8.810;2023-03-02T12:49:53;735.37;;;659.80;;
4428;SDS011;2227;47.810;8.810;2023-03-02T12:52:29;729.20;;;653.70;;
4428;SDS011;2227;47.810;8.810;2023-03-02T12:54:58;735.47;;;658.80;;
4428;SDS011;2227;47.810;8.810;2023-03-02T12:57:25;722.25;;;645.92;;
4428;SDS011;2227;47.810;8.810;2023-03-02T12:59:53;728.00;;;651.72;;
4428;SDS011;2227;47.810;8.810;2023-03-02T13:02:23;718.90;;;642.33;;
4428;SDS011;2227;47.810;8.810;2023-03-02T13:04:58;708.70;;;633.03;;
4428;SDS011;2227;47.810;8.810;2023-03-02T13:07:34;706.20;;;630.88;;
4428;SDS011;2227;47.810;8.810;2023-03-02T13:10:08;702.28;;;627.10;;
4428;SDS011;2227;47.810;8.810;2023-03-02T13:12:46;709.35;;;634.38;;
4428;SDS011;2227;47.810;8.810;2023-03-02T13:15:14;708.43;;;633.17;;
4428;SDS011;2227;47.810;8.810;2023-03-02T13:17:42;716.95;;;642.00;;
4428;SDS011;2227;47.810;8.810;2023-03-02T13:20:12;716.88;;;642.30;;
4428;SDS011;2227;47.810;8.810;2023-03-02T13:22:39;727.45;;;651.70;;
4428;SDS011;2227;47.810;8.810;2023-03-02T13:25:06;720.13;;;645.13;;
4428;SDS011;2227;47.810;8.810;2023-03-02T13:27:50;731.80;;;656.55;;
4428;SDS011;2227;47.810;8.810;2023-03-02T13:30:28;737.90;;;662.45;;
4428;SDS011;2227;47.810;8.810;2023-03-02T13:33:16;740.00;;;664.30;;
4428;SDS011;2227;47.810;8.810;2023-03-02T13:35:48;738.72;;;663.13;;
4428;SDS011;2227;47.810;8.810;2023-03-02T13:38:19;736.88;;;661.13;;
4428;SDS011;2227;47.810;8.810;2023-03-02T13:40:48;743.65;;;668.13;;
4428;SDS011;2227;47.810;8.810;2023-03-02T13:46:02;742.90;;;667.47;;
4428;SDS011;2227;47.810;8.810;2023-03-02T13:48:31;744.70;;;669.03;;
4428;SDS011;2227;47.810;8.810;2023-03-02T13:50:59;755.13;;;679.13;;
4428;SDS011;2227;47.810;8.810;2023-03-02T13:53:28;747.63;;;672.00;;
4428;SDS011;2227;47.810;8.810;2023-03-02T13:55:56;745.90;;;670.30;;
4428;SDS011;2227;47.810;8.810;2023-03-02T13:58:25;749.75;;;673.78;;
4428;SDS011;2227;47.810;8.810;2023-03-02T14:00:54;739.80;;;664.13;;
4428;SDS011;2227;47.810;8.810;2023-03-02T14:05:47;747.33;;;671.45;;
4428;SDS011;2227;47.810;8.810;2023-03-02T14:08:14;744.38;;;668.30;;
4428;SDS011;2227;47.810;8.810;2023-03-02T14:10:41;741.10;;;664.47;;
4428;SDS011;2227;47.810;8.810;2023-03-02T14:13:10;743.47;;;667.47;;
4428;SDS011;2227;47.810;8.810;2023-03-02T14:15:41;736.20;;;659.50;;
4428;SDS011;2227;47.810;8.810;2023-03-02T14:20:54;716.58;;;640.95;;
4428;SDS011;2227;47.810;8.810;2023-03-02T14:23:23;722.80;;;647.53;;
4428;SDS011;2227;47.810;8.810;2023-03-02T14:25:50;726.00;;;650.30;;
4428;SDS011;2227;47.810;8.810;2023-03-02T14:28:23;721.83;;;645.95;;
4428;SDS011;2227;47.810;8.810;2023-03-02T14:30:56;727.75;;;651.80;;
4428;SDS011;2227;47.810;8.810;2023-03-02T14:33:24;730.08;;;653.72;;
4428;SDS011;2227;47.810;8.810;2023-03-02T14:35:51;741.63;;;665.67;;
4428;SDS011;2227;47.810;8.810;2023-03-02T14:38:21;727.20;;;651.00;;
4428;SDS011;2227;47.810;8.810;2023-03-02T14:40:50;721.28;;;645.35;;
4428;SDS011;2227;47.810;8.810;2023-03-02T14:43:17;717.20;;;641.42;;
4428;SDS011;2227;47.810;8.810;2023-03-02T14:45:43;718.72;;;642.53;;
4428;SDS011;2227;47.810;8.810;2023-03-02T14:48:10;719.67;;;643.63;;
4428;SDS011;2227;47.810;8.810;2023-03-02T14:50:39;720.88;;;644.00;;
4428;SDS011;2227;47.810;8.810;2023-03-02T14:53:12;719.05;;;643.00;;
4428;SDS011;2227;47.810;8.810;2023-03-02T14:55:43;726.47;;;650.50;;
4428;SDS011;2227;47.810;8.810;2023-03-02T14:58:11;718.28;;;642.58;;
4428;SDS011;2227;47.810;8.810;2023-03-02T15:00:43;720.92;;;644.70;;
4428;SDS011;2227;47.810;8.810;2023-03-02T15:03:15;724.83;;;648.22;;
4428;SDS011;2227;47.810;8.810;2023-03-02T15:05:45;719.80;;;642.10;;
4428;SDS011;2227;47.810;8.810;2023-03-02T15:08:25;710.67;;;633.88;;
4428;SDS011;2227;47.810;8.810;2023-03-02T15:10:52;695.53;;;619.20;;
4428;SDS011;2227;47.810;8.810;2023-03-02T15:13:18;696.40;;;619.67;;
4428;SDS011;2227;47.810;8.810;2023-03-02T15:15:45;693.28;;;614.53;;
4428;SDS011;2227;47.810;8.810;2023-03-02T15:18:12;689.50;;;611.23;;
4428;SDS011;2227;47.810;8.810;2023-03-02T15:20:42;693.72;;;606.58;;
4428;SDS011;2227;47.810;8.810;2023-03-02T15:23:08;687.28;;;602.47;;
4428;SDS011;2227;47.810;8.810;2023-03-02T15:25:35;682.80;;;602.92;;
4428;SDS011;2227;47.810;8.810;2023-03-02T15:28:02;685.92;;;599.33;;
4428;SDS011;2227;47.810;8.810;2023-03-02T15:30:29;685.47;;;606.00;;
4428;SDS011;2227;47.810;8.810;2023-03-02T15:32:56;686.53;;;606.22;;
4428;SDS011;2227;47.810;8.810;2023-03-02T15:35:25;690.08;;;611.63;;
4428;SDS011;2227;47.810;8.810;2023-03-02T15:37:52;696.20;;;619.70;;
4428;SDS011;2227;47.810;8.810;2023-03-02T15:40:20;692.47;;;609.03;;
4428;SDS011;2227;47.810;8.810;2023-03-02T15:42:47;688.80;;;611.63;;
4428;SDS011;2227;47.810;8.810;2023-03-02T15:45:14;691.28;;;610.10;;
4428;SDS011;2227;47.810;8.810;2023-03-02T15:47:40;690.08;;;605.45;;
4428;SDS011;2227;47.810;8.810;2023-03-02T15:50:07;690.47;;;599.67;;
4428;SDS011;2227;47.810;8.810;2023-03-02T15:52:35;689.28;;;597.75;;
4428;SDS011;2227;47.810;8.810;2023-03-02T15:55:02;688.67;;;602.58;;
4428;SDS011;2227;47.810;8.810;2023-03-02T15:57:29;687.20;;;610.35;;
4428;SDS011;2227;47.810;8.810;2023-03-02T15:59:55;687.80;;;611.57;;
4428;SDS011;2227;47.810;8.810;2023-03-02T16:02:22;690.95;;;611.50;;
4428;SDS011;2227;47.810;8.810;2023-03-02T16:04:49;700.50;;;623.60;;
4428;SDS011;2227;47.810;8.810;2023-03-02T16:07:15;693.90;;;617.53;;
4428;SDS011;2227;47.810;8.810;2023-03-02T16:09:42;697.80;;;621.47;;
4428;SDS011;2227;47.810;8.810;2023-03-02T16:12:10;690.92;;;614.85;;
4428;SDS011;2227;47.810;8.810;2023-03-02T16:14:37;711.75;;;635.30;;
4428;SDS011;2227;47.810;8.810;2023-03-02T16:17:03;713.03;;;636.40;;
4428;SDS011;2227;47.810;8.810;2023-03-02T16:19:30;715.55;;;638.47;;
4428;SDS011;2227;47.810;8.810;2023-03-02T16:21:57;718.08;;;641.00;;
4428;SDS011;2227;47.810;8.810;2023-03-02T16:24:24;714.88;;;637.58;;
4428;SDS011;2227;47.810;8.810;2023-03-02T16:26:51;713.15;;;636.20;;
4428;SDS011;2227;47.810;8.810;2023-03-02T16:29:18;712.53;;;635.33;;
4428;SDS011;2227;47.810;8.810;2023-03-02T16:31:45;704.42;;;627.53;;
4428;SDS011;2227;47.810;8.810;2023-03-02T16:34:12;705.42;;;628.58;;
4428;SDS011;2227;47.810;8.810;2023-03-02T16:36:39;695.65;;;619.25;;
4428;SDS011;2227;47.810;8.810;2023-03-02T16:39:07;701.35;;;624.80;;
4428;SDS011;2227;47.810;8.810;2023-03-02T16:41:35;698.95;;;622.25;;
4428;SDS011;2227;47.810;8.810;2023-03-02T16:44:03;695.42;;;618.83;;
4428;SDS011;2227;47.810;8.810;2023-03-02T16:46:31;690.85;;;614.13;;
4428;SDS011;2227;47.810;8.810;2023-03-02T16:49:02;698.47;;;621.80;;
4428;SDS011;2227;47.810;8.810;2023-03-02T16:51:30;696.17;;;619.20;;
4428;SDS011;2227;47.810;8.810;2023-03-02T16:53:57;701.47;;;624.55;;
4428;SDS011;2227;47.810;8.810;2023-03-02T16:56:24;694.60;;;617.97;;
4428;SDS011;2227;47.810;8.810;2023-03-02T16:58:51;694.75;;;618.00;;
4428;SDS011;2227;47.810;8.810;2023-03-02T17:01:18;697.08;;;620.58;;
4428;SDS011;2227;47.810;8.810;2023-03-02T17:03:46;696.33;;;619.55;;
4428;SDS011;2227;47.810;8.810;2023-03-02T17:06:17;693.78;;;617.08;;
4428;SDS011;2227;47.810;8.810;2023-03-02T17:08:45;704.47;;;627.00;;
4428;SDS011;2227;47.810;8.810;2023-03-02T17:11:12;701.10;;;624.42;;
4428;SDS011;2227;47.810;8.810;2023-03-02T17:13:39;700.67;;;623.78;;
4428;SDS011;2227;47.810;8.810;2023-03-02T17:16:06;704.42;;;627.20;;
4428;SDS011;2227;47.810;8.810;2023-03-02T17:18:33;699.65;;;622.25;;
4428;SDS011;2227;47.810;8.810;2023-03-02T17:21:00;705.05;;;627.55;;
4428;SDS011;2227;47.810;8.810;2023-03-02T17:23:27;694.65;;;615.75;;
4428;SDS011;2227;47.810;8.810;2023-03-02T17:25:53;704.30;;;626.47;;
4428;SDS011;2227;47.810;8.810;2023-03-02T17:28:21;703.13;;;625.58;;
4428;SDS011;2227;47.810;8.810;2023-03-02T17:30:48;705.95;;;628.30;;
4428;SDS011;2227;47.810;8.810;2023-03-02T17:33:15;698.42;;;618.40;;
4428;SDS011;2227;47.810;8.810;2023-03-02T17:35:43;701.80;;;623.92;;
4428;SDS011;2227;47.810;8.810;2023-03-02T17:38:11;701.70;;;611.53;;
4428;SDS011;2227;47.810;8.810;2023-03-02T17:40:37;696.63;;;611.00;;
4428;SDS011;2227;47.810;8.810;2023-03-02T17:43:04;698.20;;;605.80;;
4428;SDS011;2227;47.810;8.810;2023-03-02T17:45:31;699.08;;;611.45;;
4428;SDS011;2227;47.810;8.810;2023-03-02T17:47:58;699.33;;;600.55;;
4428;SDS011;2227;47.810;8.810;2023-03-02T17:50:25;696.90;;;601.30;;
4428;SDS011;2227;47.810;8.810;2023-03-02T17:52:56;694.50;;;601.95;;
4428;SDS011;2227;47.810;8.810;2023-03-02T17:55:23;692.42;;;589.13;;
4428;SDS011;2227;47.810;8.810;2023-03-02T17:57:49;694.13;;;594.95;;
4428;SDS011;2227;47.810;8.810;2023-03-02T18:00:17;694.03;;;593.15;;
4428;SDS011;2227;47.810;8.810;2023-03-02T18:02:45;696.88;;;590.28;;
4428;SDS011;2227;47.810;8.810;2023-03-02T18:05:12;689.45;;;580.40;;
4428;SDS011;2227;47.810;8.810;2023-03-02T18:07:39;695.58;;;595.05;;
4428;SDS011;2227;47.810;8.810;2023-03-02T18:10:06;691.50;;;578.03;;
4428;SDS011;2227;47.810;8.810;2023-03-02T18:12:33;689.78;;;575.05;;
4428;SDS011;2227;47.810;8.810;2023-03-02T18:15:00;687.38;;;568.00;;
4428;SDS011;2227;47.810;8.810;2023-03-02T18:17:27;683.30;;;573.45;;
4428;SDS011;2227;47.810;8.810;2023-03-02T18:19:54;681.08;;;576.65;;
4428;SDS011;2227;47.810;8.810;2023-03-02T18:22:21;674.80;;;573.63;;
4428;SDS011;2227;47.810;8.810;2023-03-02T18:24:47;680.40;;;580.35;;
4428;SDS011;2227;47.810;8.810;2023-03-02T18:27:15;685.03;;;593.55;;
4428;SDS011;2227;47.810;8.810;2023-03-02T18:29:42;682.42;;;598.80;;
4428;SDS011;2227;47.810;8.810;2023-03-02T18:32:12;684.60;;;605.92;;
4428;SDS011;2227;47.810;8.810;2023-03-02T18:34:39;684.87;;;608.93;;
4428;SDS011;2227;47.810;8.810;2023-03-02T18:37:06;688.35;;;606.45;;
4428;SDS011;2227;47.810;8.810;2023-03-02T18:39:33;689.67;;;608.35;;
4428;SDS011;2227;47.810;8.810;2023-03-02T18:42:00;693.33;;;611.90;;
4428;SDS011;2227;47.810;8.810;2023-03-02T18:44:26;693.30;;;607.25;;
4428;SDS011;2227;47.810;8.810;2023-03-02T18:46:56;709.58;;;616.30;;
4428;SDS011;2227;47.810;8.810;2023-03-02T18:49:23;714.50;;;620.55;;
4428;SDS011;2227;47.810;8.810;2023-03-02T18:51:50;712.10;;;613.05;;
4428;SDS011;2227;47.810;8.810;2023-03-02T18:54:18;732.22;;;617.28;;
4428;SDS011;2227;47.810;8.810;2023-03-02T18:56:44;718.08;;;610.78;;
4428;SDS011;2227;47.810;8.810;2023-03-02T18:59:11;711.55;;;599.20;;
4428;SDS011;2227;47.810;8.810;2023-03-02T19:01:38;728.83;;;609.25;;
4428;SDS011;2227;47.810;8.810;2023-03-02T19:04:05;717.10;;;603.35;;
4428;SDS011;2227;47.810;8.810;2023-03-02T19:06:32;712.45;;;610.28;;
4428;SDS011;2227;47.810;8.810;2023-03-02T19:08:59;706.13;;;596.25;;
4428;SDS011;2227;47.810;8.810;2023-03-02T19:11:26;703.42;;;603.35;;
4428;SDS011;2227;47.810;8.810;2023-03-02T19:13:54;696.78;;;604.42;;
4428;SDS011;2227;47.810;8.810;2023-03-02T19:16:21;696.30;;;603.42;;
4428;SDS011;2227;47.810;8.810;2023-03-02T19:18:48;697.17;;;607.70;;
4428;SDS011;2227;47.810;8.810;2023-03-02T19:21:15;697.00;;;598.92;;
4428;SDS011;2227;47.810;8.810;2023-03-02T19:23:42;696.00;;;607.35;;
4428;SDS011;2227;47.810;8.810;2023-03-02T19:26:11;695.55;;;604.55;;
4428;SDS011;2227;47.810;8.810;2023-03-02T19:28:38;693.03;;;601.13;;
4428;SDS011;2227;47.810;8.810;2023-03-02T19:31:06;695.90;;;610.38;;
4428;SDS011;2227;47.810;8.810;2023-03-02T19:33:34;690.83;;;608.63;;
4428;SDS011;2227;47.810;8.810;2023-03-02T19:36:01;689.37;;;602.00;;
4428;SDS011;2227;47.810;8.810;2023-03-02T19:38:29;684.03;;;605.15;;
4428;SDS011;2227;47.810;8.810;2023-03-02T19:40:56;687.80;;;611.85;;
4428;SDS011;2227;47.810;8.810;2023-03-02T19:43:25;686.65;;;610.78;;
4428;SDS011;2227;47.810;8.810;2023-03-02T19:45:52;690.20;;;609.03;;
4428;SDS011;2227;47.810;8.810;2023-03-02T19:48:19;686.83;;;610.78;;
4428;SDS011;2227;47.810;8.810;2023-03-02T19:50:46;687.75;;;612.13;;
4428;SDS011;2227;47.810;8.810;2023-03-02T19:53:13;696.05;;;620.10;;
4428;SDS011;2227;47.810;8.810;2023-03-02T19:55:42;688.80;;;612.65;;
4428;SDS011;2227;47.810;8.810;2023-03-02T19:58:09;703.35;;;626.65;;
4428;SDS011;2227;47.810;8.810;2023-03-02T20:00:42;696.47;;;619.92;;
4428;SDS011;2227;47.810;8.810;2023-03-02T20:03:09;698.92;;;622.30;;
4428;SDS011;2227;47.810;8.810;2023-03-02T20:05:37;694.25;;;617.42;;
4428;SDS011;2227;47.810;8.810;2023-03-02T20:08:05;702.05;;;624.95;;
4428;SDS011;2227;47.810;8.810;2023-03-02T20:10:36;692.95;;;614.35;;
4428;SDS011;2227;47.810;8.810;2023-03-02T20:13:05;695.03;;;618.63;;